sensor_id;sensor_type;location;lat;lon;timestamp;pressure;altitude;pressure_sealevel;temperature;humidity
74790;BME280;63318;52.406;13.416;2023-08-01T00:01:20;99775.20;;;18.33;73.24
74790;BME280;63318;52.406;13.416;2023-08-01T00:03:48;99768.38;;;18.28;73.40
74790;BME280;63318;52.406;13.416;2023-08-01T00:06:17;99765.73;;;18.25;73.43
74790;BME280;63318;52.406;13.416;2023-08-01T00:08:45;99762.28;;;18.20;73.81
74790;BME280;63318;52.406;13.416;2023-08-01T00:11:13;99756.77;;;18.16;73.90
74790;BME280;63318;52.406;13.416;2023-08-01T00:13:41;99755.78;;;18.13;74.22
74790;BME280;63318;52.406;13.416;2023-08-01T00:16:10;99752.38;;;18.10;74.37
74790;BME280;63318;52.406;13.416;2023-08-01T00:18:38;99747.66;;;18.06;74.52
74790;BME280;63318;52.406;13.416;2023-08-01T00:21:06;99747.05;;;18.02;74.40
74790;BME280;63318;52.406;13.416;2023-08-01T00:23:35;99744.46;;;17.97;74.67
74790;BME280;63318;52.406;13.416;2023-08-01T00:26:03;99742.73;;;17.91;75.21
74790;BME280;63318;52.406;13.416;2023-08-01T00:28:31;99740.77;;;17.88;75.07
74790;BME280;63318;52.406;13.416;2023-08-01T00:31:09;99737.69;;;17.83;75.54
74790;BME280;63318;52.406;13.416;2023-08-01T00:33:38;99735.80;;;17.79;75.69
74790;BME280;63318;52.406;13.416;2023-08-01T00:36:06;99731.98;;;17.74;75.49
74790;BME280;63318;52.406;13.416;2023-08-01T00:38:34;99732.13;;;17.69;75.88
74790;BME280;63318;52.406;13.416;2023-08-01T00:41:02;99724.64;;;17.64;75.95
74790;BME280;63318;52.406;13.416;2023-08-01T00:43:30;99724.90;;;17.60;76.27
74790;BME280;63318;52.406;13.416;2023-08-01T00:46:00;99716.96;;;17.56;76.45
74790;BME280;63318;52.406;13.416;2023-08-01T00:48:31;99707.09;;;17.52;76.84
74790;BME280;63318;52.406;13.416;2023-08-01T00:51:03;99699.20;;;17.50;76.90
74790;BME280;63318;52.406;13.416;2023-08-01T00:53:32;99697.50;;;17.47;76.87
74790;BME280;63318;52.406;13.416;2023-08-01T00:56:01;99695.39;;;17.44;77.22
74790;BME280;63318;52.406;13.416;2023-08-01T00:58:29;99692.73;;;17.42;77.50
74790;BME280;63318;52.406;13.416;2023-08-01T01:00:58;99686.87;;;17.40;77.44
74790;BME280;63318;52.406;13.416;2023-08-01T01:03:26;99684.48;;;17.38;77.62
74790;BME280;63318;52.406;13.416;2023-08-01T01:06:01;99682.48;;;17.36;77.56
74790;BME280;63318;52.406;13.416;2023-08-01T01:08:29;99679.20;;;17.34;77.71
74790;BME280;63318;52.406;13.416;2023-08-01T01:10:58;99678.63;;;17.31;77.83
74790;BME280;63318;52.406;13.416;2023-08-01T01:13:26;99676.52;;;17.29;78.09
74790;BME280;63318;52.406;13.416;2023-08-01T01:15:54;99673.90;;;17.27;78.27
74790;BME280;63318;52.406;13.416;2023-08-01T01:18:22;99668.23;;;17.26;78.25
74790;BME280;63318;52.406;13.416;2023-08-01T01:20:50;99668.32;;;17.24;78.39
74790;BME280;63318;52.406;13.416;2023-08-01T01:23:20;99667.39;;;17.22;78.31
74790;BME280;63318;52.406;13.416;2023-08-01T01:25:51;99652.83;;;17.19;78.29
74790;BME280;63318;52.406;13.416;2023-08-01T01:28:20;99641.77;;;17.17;78.81
74790;BME280;63318;52.406;13.416;2023-08-01T01:30:49;99622.17;;;17.16;78.95
74790;BME280;63318;52.406;13.416;2023-08-01T01:33:19;99613.55;;;17.15;79.10
74790;BME280;63318;52.406;13.416;2023-08-01T01:35:48;99615.88;;;17.15;79.13
74790;BME280;63318;52.406;13.416;2023-08-01T01:38:16;99610.48;;;17.14;79.10
74790;BME280;63318;52.406;13.416;2023-08-01T01:40:45;99605.85;;;17.13;79.08
74790;BME280;63318;52.406;13.416;2023-08-01T01:43:14;99605.88;;;17.12;79.00
74790;BME280;63318;52.406;13.416;2023-08-01T01:45:42;99608.39;;;17.10;79.26
74790;BME280;63318;52.406;13.416;2023-08-01T01:48:10;99596.25;;;17.09;79.53
74790;BME280;63318;52.406;13.416;2023-08-01T01:50:39;99598.63;;;17.09;79.34
74790;BME280;63318;52.406;13.416;2023-08-01T01:53:07;99598.82;;;17.07;79.40
74790;BME280;63318;52.406;13.416;2023-08-01T01:55:35;99599.09;;;17.06;79.51
74790;BME280;63318;52.406;13.416;2023-08-01T01:58:03;99597.20;;;17.04;79.53
74790;BME280;63318;52.406;13.416;2023-08-01T02:00:31;99595.88;;;17.04;79.68
74790;BME280;63318;52.406;13.416;2023-08-01T02:03:00;99589.82;;;17.02;79.76
74790;BME280;63318;52.406;13.416;2023-08-01T02:05:28;99584.80;;;17.01;79.96
74790;BME280;63318;52.406;13.416;2023-08-01T02:07:56;99577.33;;;17.00;79.94
74790;BME280;63318;52.406;13.416;2023-08-01T02:10:24;99556.11;;;16.99;80.03
74790;BME280;63318;52.406;13.416;2023-08-01T02:12:52;99552.24;;;16.99;80.08
74790;BME280;63318;52.406;13.416;2023-08-01T02:15:21;99548.63;;;16.98;80.18
74790;BME280;63318;52.406;13.416;2023-08-01T02:17:49;99547.50;;;16.98;80.24
74790;BME280;63318;52.406;13.416;2023-08-01T02:20:17;99537.77;;;16.98;80.32
74790;BME280;63318;52.406;13.416;2023-08-01T02:22:45;99538.02;;;16.97;80.63
74790;BME280;63318;52.406;13.416;2023-08-01T02:25:14;99534.38;;;16.97;80.45
74790;BME280;63318;52.406;13.416;2023-08-01T02:27:42;99531.78;;;16.96;80.53
74790;BME280;63318;52.406;13.416;2023-08-01T02:30:12;99526.05;;;16.95;80.58
74790;BME280;63318;52.406;13.416;2023-08-01T02:32:40;99523.85;;;16.94;80.65
74790;BME280;63318;52.406;13.416;2023-08-01T02:35:09;99521.72;;;16.92;80.60
74790;BME280;63318;52.406;13.416;2023-08-01T02:37:37;99518.52;;;16.90;80.81
74790;BME280;63318;52.406;13.416;2023-08-01T02:40:07;99520.02;;;16.90;80.88
74790;BME280;63318;52.406;13.416;2023-08-01T02:42:36;99518.71;;;16.89;80.92
74790;BME280;63318;52.406;13.416;2023-08-01T02:45:06;99514.41;;;16.88;81.17
74790;BME280;63318;52.406;13.416;2023-08-01T02:47:34;99513.15;;;16.88;81.28
74790;BME280;63318;52.406;13.416;2023-08-01T02:50:02;99512.20;;;16.88;81.33
74790;BME280;63318;52.406;13.416;2023-08-01T02:52:30;99508.84;;;16.89;81.12
74790;BME280;63318;52.406;13.416;2023-08-01T02:54:59;99510.20;;;16.89;81.29
74790;BME280;63318;52.406;13.416;2023-08-01T02:57:27;99505.96;;;16.89;81.41
74790;BME280;63318;52.406;13.416;2023-08-01T02:59:55;99503.08;;;16.89;81.39
74790;BME280;63318;52.406;13.416;2023-08-01T03:02:23;99501.82;;;16.90;81.50
74790;BME280;63318;52.406;13.416;2023-08-01T03:04:51;99497.79;;;16.89;81.47
74790;BME280;63318;52.406;13.416;2023-08-01T03:07:20;99490.48;;;16.89;81.26
74790;BME280;63318;52.406;13.416;2023-08-01T03:09:48;99477.23;;;16.88;81.56
74790;BME280;63318;52.406;13.416;2023-08-01T03:12:16;99477.70;;;16.88;81.51
74790;BME280;63318;52.406;13.416;2023-08-01T03:14:44;99482.50;;;16.87;81.55
74790;BME280;63318;52.406;13.416;2023-08-01T03:17:12;99482.08;;;16.87;81.40
74790;BME280;63318;52.406;13.416;2023-08-01T03:19:41;99473.15;;;16.86;81.69
74790;BME280;63318;52.406;13.416;2023-08-01T03:22:09;99468.06;;;16.85;81.64
74790;BME280;63318;52.406;13.416;2023-08-01T03:24:37;99469.36;;;16.85;81.67
74790;BME280;63318;52.406;13.416;2023-08-01T03:27:06;99468.20;;;16.85;81.47
74790;BME280;63318;52.406;13.416;2023-08-01T03:29:35;99464.52;;;16.84;81.67
74790;BME280;63318;52.406;13.416;2023-08-01T03:32:03;99462.18;;;16.84;81.63
74790;BME280;63318;52.406;13.416;2023-08-01T03:34:32;99461.17;;;16.83;81.86
74790;BME280;63318;52.406;13.416;2023-08-01T03:37:00;99456.55;;;16.81;81.72
74790;BME280;63318;52.406;13.416;2023-08-01T03:39:28;99455.48;;;16.81;82.06
74790;BME280;63318;52.406;13.416;2023-08-01T03:41:56;99452.39;;;16.80;81.83
74790;BME280;63318;52.406;13.416;2023-08-01T03:44:24;99446.60;;;16.79;81.97
74790;BME280;63318;52.406;13.416;2023-08-01T03:46:53;99446.56;;;16.78;82.20
74790;BME280;63318;52.406;13.416;2023-08-01T03:49:21;99452.16;;;16.77;81.97
74790;BME280;63318;52.406;13.416;2023-08-01T03:51:49;99445.64;;;16.76;82.13
74790;BME280;63318;52.406;13.416;2023-08-01T03:54:17;99441.38;;;16.76;82.15
74790;BME280;63318;52.406;13.416;2023-08-01T03:56:45;99438.64;;;16.76;82.06
74790;BME280;63318;52.406;13.416;2023-08-01T03:59:14;99441.77;;;16.76;82.23
74790;BME280;63318;52.406;13.416;2023-08-01T04:01:43;99438.96;;;16.76;82.28
74790;BME280;63318;52.406;13.416;2023-08-01T04:04:12;99440.29;;;16.77;82.26
74790;BME280;63318;52.406;13.416;2023-08-01T04:06:40;99439.81;;;16.77;82.14
74790;BME280;63318;52.406;13.416;2023-08-01T04:09:08;99440.16;;;16.78;82.21
74790;BME280;63318;52.406;13.416;2023-08-01T04:11:36;99432.64;;;16.78;82.04
74790;BME280;63318;52.406;13.416;2023-08-01T04:14:04;99427.46;;;16.80;82.09
74790;BME280;63318;52.406;13.416;2023-08-01T04:16:33;99424.13;;;16.80;82.14
74790;BME280;63318;52.406;13.416;2023-08-01T04:19:01;99423.18;;;16.83;82.20
74790;BME280;63318;52.406;13.416;2023-08-01T04:21:29;99421.88;;;16.85;82.28
74790;BME280;63318;52.406;13.416;2023-08-01T04:23:57;99418.27;;;16.87;82.03
74790;BME280;63318;52.406;13.416;2023-08-01T04:26:25;99420.96;;;16.90;82.09
74790;BME280;63318;52.406;13.416;2023-08-01T04:28:54;99418.47;;;16.93;81.94
74790;BME280;63318;52.406;13.416;2023-08-01T04:31:22;99417.45;;;16.95;82.16
74790;BME280;63318;52.406;13.416;2023-08-01T04:33:50;99417.45;;;16.98;82.32
74790;BME280;63318;52.406;13.416;2023-08-01T04:36:18;99421.17;;;17.01;82.36
74790;BME280;63318;52.406;13.416;2023-08-01T04:38:46;99422.94;;;17.03;82.49
74790;BME280;63318;52.406;13.416;2023-08-01T04:41:14;99418.65;;;17.05;82.13
74790;BME280;63318;52.406;13.416;2023-08-01T04:43:43;99418.17;;;17.07;82.29
74790;BME280;63318;52.406;13.416;2023-08-01T04:46:11;99413.42;;;17.09;82.18
74790;BME280;63318;52.406;13.416;2023-08-01T04:48:39;99414.23;;;17.09;82.32
74790;BME280;63318;52.406;13.416;2023-08-01T04:51:07;99405.52;;;17.10;82.33
74790;BME280;63318;52.406;13.416;2023-08-01T04:53:35;99401.50;;;17.10;82.42
74790;BME280;63318;52.406;13.416;2023-08-01T04:56:04;99395.30;;;17.11;82.26
74790;BME280;63318;52.406;13.416;2023-08-01T04:58:32;99395.23;;;17.11;82.34
74790;BME280;63318;52.406;13.416;2023-08-01T05:01:00;99391.17;;;17.13;82.46
74790;BME280;63318;52.406;13.416;2023-08-01T05:03:28;99390.64;;;17.13;82.45
74790;BME280;63318;52.406;13.416;2023-08-01T05:05:57;99385.69;;;17.14;82.50
74790;BME280;63318;52.406;13.416;2023-08-01T05:08:25;99383.78;;;17.14;82.45
74790;BME280;63318;52.406;13.416;2023-08-01T05:10:53;99378.41;;;17.14;82.59
74790;BME280;63318;52.406;13.416;2023-08-01T05:13:21;99375.33;;;17.16;82.80
74790;BME280;63318;52.406;13.416;2023-08-01T05:15:49;99372.79;;;17.17;82.72
74790;BME280;63318;52.406;13.416;2023-08-01T05:18:18;99369.29;;;17.18;82.68
74790;BME280;63318;52.406;13.416;2023-08-01T05:20:46;99363.38;;;17.18;82.73
74790;BME280;63318;52.406;13.416;2023-08-01T05:23:14;99363.64;;;17.19;82.83
74790;BME280;63318;52.406;13.416;2023-08-01T05:25:42;99356.67;;;17.19;82.90
74790;BME280;63318;52.406;13.416;2023-08-01T05:28:11;99353.59;;;17.21;82.71
74790;BME280;63318;52.406;13.416;2023-08-01T05:30:39;99348.48;;;17.22;82.82
74790;BME280;63318;52.406;13.416;2023-08-01T05:33:08;99350.71;;;17.23;82.60
74790;BME280;63318;52.406;13.416;2023-08-01T05:35:36;99348.81;;;17.24;82.82
74790;BME280;63318;52.406;13.416;2023-08-01T05:38:04;99348.06;;;17.26;82.77
74790;BME280;63318;52.406;13.416;2023-08-01T05:40:32;99344.25;;;17.27;82.73
74790;BME280;63318;52.406;13.416;2023-08-01T05:43:01;99338.51;;;17.27;82.80
74790;BME280;63318;52.406;13.416;2023-08-01T05:45:29;99336.06;;;17.29;82.51
74790;BME280;63318;52.406;13.416;2023-08-01T05:47:57;99344.94;;;17.30;82.78
74790;BME280;63318;52.406;13.416;2023-08-01T05:50:26;99340.71;;;17.31;82.90
74790;BME280;63318;52.406;13.416;2023-08-01T05:52:54;99339.92;;;17.34;82.91
74790;BME280;63318;52.406;13.416;2023-08-01T05:55:22;99338.38;;;17.36;82.91
74790;BME280;63318;52.406;13.416;2023-08-01T05:57:50;99339.61;;;17.37;82.97
74790;BME280;63318;52.406;13.416;2023-08-01T06:00:19;99339.58;;;17.39;82.78
74790;BME280;63318;52.406;13.416;2023-08-01T06:02:48;99336.78;;;17.40;82.85
74790;BME280;63318;52.406;13.416;2023-08-01T06:05:16;99336.33;;;17.40;82.63
74790;BME280;63318;52.406;13.416;2023-08-01T06:07:44;99339.61;;;17.41;82.67
74790;BME280;63318;52.406;13.416;2023-08-01T06:10:13;99345.37;;;17.42;82.90
74790;BME280;63318;52.406;13.416;2023-08-01T06:12:41;99345.30;;;17.43;82.89
74790;BME280;63318;52.406;13.416;2023-08-01T06:15:10;99345.02;;;17.43;82.67
74790;BME280;63318;52.406;13.416;2023-08-01T06:17:38;99346.13;;;17.43;82.54
74790;BME280;63318;52.406;13.416;2023-08-01T06:20:08;99341.30;;;17.43;82.76
74790;BME280;63318;52.406;13.416;2023-08-01T06:22:37;99336.27;;;17.44;82.83
74790;BME280;63318;52.406;13.416;2023-08-01T06:25:06;99334.23;;;17.45;82.86
74790;BME280;63318;52.406;13.416;2023-08-01T06:27:34;99334.05;;;17.47;82.68
74790;BME280;63318;52.406;13.416;2023-08-01T06:30:03;99333.06;;;17.49;82.68
74790;BME280;63318;52.406;13.416;2023-08-01T06:32:31;99325.00;;;17.50;82.79
74790;BME280;63318;52.406;13.416;2023-08-01T06:34:59;99324.05;;;17.52;82.74
74790;BME280;63318;52.406;13.416;2023-08-01T06:37:27;99323.23;;;17.54;82.67
74790;BME280;63318;52.406;13.416;2023-08-01T06:39:57;99320.95;;;17.56;82.81
74790;BME280;63318;52.406;13.416;2023-08-01T06:42:25;99319.21;;;17.57;82.63
74790;BME280;63318;52.406;13.416;2023-08-01T06:44:54;99317.80;;;17.58;82.71
74790;BME280;63318;52.406;13.416;2023-08-01T06:47:22;99317.89;;;17.58;82.67
74790;BME280;63318;52.406;13.416;2023-08-01T06:49:50;99318.30;;;17.59;82.73
74790;BME280;63318;52.406;13.416;2023-08-01T06:52:18;99324.11;;;17.60;82.65
74790;BME280;63318;52.406;13.416;2023-08-01T06:54:47;99318.45;;;17.61;82.79
74790;BME280;63318;52.406;13.416;2023-08-01T06:57:15;99314.83;;;17.63;82.75
74790;BME280;63318;52.406;13.416;2023-08-01T06:59:43;99313.34;;;17.64;82.67
74790;BME280;63318;52.406;13.416;2023-08-01T07:02:11;99316.11;;;17.65;82.78
74790;BME280;63318;52.406;13.416;2023-08-01T07:04:40;99313.40;;;17.66;82.74
74790;BME280;63318;52.406;13.416;2023-08-01T07:07:08;99314.45;;;17.66;82.74
74790;BME280;63318;52.406;13.416;2023-08-01T07:09:36;99315.07;;;17.68;82.88
74790;BME280;63318;52.406;13.416;2023-08-01T07:12:06;99317.94;;;17.70;82.96
74790;BME280;63318;52.406;13.416;2023-08-01T07:14:34;99307.17;;;17.72;82.82
74790;BME280;63318;52.406;13.416;2023-08-01T07:17:04;99307.14;;;17.74;82.68
74790;BME280;63318;52.406;13.416;2023-08-01T07:19:32;99309.54;;;17.76;82.77
74790;BME280;63318;52.406;13.416;2023-08-01T07:22:00;99311.58;;;17.78;82.79
74790;BME280;63318;52.406;13.416;2023-08-01T07:24:28;99310.70;;;17.81;82.71
74790;BME280;63318;52.406;13.416;2023-08-01T07:26:57;99308.23;;;17.86;82.76
74790;BME280;63318;52.406;13.416;2023-08-01T07:29:25;99303.70;;;17.90;82.86
74790;BME280;63318;52.406;13.416;2023-08-01T07:31:53;99299.25;;;17.98;82.85
74790;BME280;63318;52.406;13.416;2023-08-01T07:34:21;99291.38;;;18.06;82.60
74790;BME280;63318;52.406;13.416;2023-08-01T07:36:50;99282.84;;;18.15;82.67
74790;BME280;63318;52.406;13.416;2023-08-01T07:39:18;99278.66;;;18.23;82.80
74790;BME280;63318;52.406;13.416;2023-08-01T07:41:46;99278.65;;;18.32;82.70
74790;BME280;63318;52.406;13.416;2023-08-01T07:44:14;99282.23;;;18.39;82.50
74790;BME280;63318;52.406;13.416;2023-08-01T07:46:42;99285.97;;;18.46;82.37
74790;BME280;63318;52.406;13.416;2023-08-01T07:49:11;99296.40;;;18.51;82.21
74790;BME280;63318;52.406;13.416;2023-08-01T07:51:39;99295.56;;;18.56;82.02
74790;BME280;63318;52.406;13.416;2023-08-01T07:54:07;99291.48;;;18.61;81.93
74790;BME280;63318;52.406;13.416;2023-08-01T07:56:35;99290.25;;;18.65;81.96
74790;BME280;63318;52.406;13.416;2023-08-01T07:59:03;99288.81;;;18.72;81.94
74790;BME280;63318;52.406;13.416;2023-08-01T08:01:31;99289.88;;;18.80;81.93
74790;BME280;63318;52.406;13.416;2023-08-01T08:04:00;99281.90;;;18.88;81.62
74790;BME280;63318;52.406;13.416;2023-08-01T08:06:28;99287.52;;;18.98;81.76
74790;BME280;63318;52.406;13.416;2023-08-01T08:08:56;99287.13;;;19.05;81.46
74790;BME280;63318;52.406;13.416;2023-08-01T08:11:24;99283.09;;;19.07;81.22
74790;BME280;63318;52.406;13.416;2023-08-01T08:13:52;99278.19;;;19.11;81.13
74790;BME280;63318;52.406;13.416;2023-08-01T08:16:20;99276.52;;;19.16;81.02
74790;BME280;63318;52.406;13.416;2023-08-01T08:18:49;99275.08;;;19.22;80.88
74790;BME280;63318;52.406;13.416;2023-08-01T08:21:17;99273.52;;;19.35;81.02
74790;BME280;63318;52.406;13.416;2023-08-01T08:23:45;99274.39;;;19.55;80.85
74790;BME280;63318;52.406;13.416;2023-08-01T08:26:13;99274.52;;;19.76;80.68
74790;BME280;63318;52.406;13.416;2023-08-01T08:28:41;99267.87;;;19.98;80.37
74790;BME280;63318;52.406;13.416;2023-08-01T08:31:10;99267.98;;;20.23;80.20
74790;BME280;63318;52.406;13.416;2023-08-01T08:33:38;99266.05;;;20.44;79.57
74790;BME280;63318;52.406;13.416;2023-08-01T08:36:06;99263.89;;;20.63;79.13
74790;BME280;63318;52.406;13.416;2023-08-01T08:38:34;99263.61;;;20.81;78.62
74790;BME280;63318;52.406;13.416;2023-08-01T08:41:08;99267.14;;;20.89;78.36
74790;BME280;63318;52.406;13.416;2023-08-01T08:43:36;99272.84;;;20.98;78.00
74790;BME280;63318;52.406;13.416;2023-08-01T08:46:06;99276.78;;;21.05;77.59
74790;BME280;63318;52.406;13.416;2023-08-01T08:48:36;99273.99;;;21.08;77.31
74790;BME280;63318;52.406;13.416;2023-08-01T08:51:06;99275.48;;;21.10;77.18
74790;BME280;63318;52.406;13.416;2023-08-01T08:53:36;99276.38;;;21.10;76.99
74790;BME280;63318;52.406;13.416;2023-08-01T08:56:04;99271.68;;;21.10;76.85
74790;BME280;63318;52.406;13.416;2023-08-01T08:58:37;99262.63;;;21.13;76.73
74790;BME280;63318;52.406;13.416;2023-08-01T09:01:07;99265.98;;;21.22;76.92
74790;BME280;63318;52.406;13.416;2023-08-01T09:03:35;99264.23;;;21.34;76.86
74790;BME280;63318;52.406;13.416;2023-08-01T09:06:07;99269.65;;;21.46;76.57
74790;BME280;63318;52.406;13.416;2023-08-01T09:08:39;99271.12;;;21.59;76.16
74790;BME280;63318;52.406;13.416;2023-08-01T09:11:07;99271.89;;;21.63;75.48
74790;BME280;63318;52.406;13.416;2023-08-01T09:13:35;99272.38;;;21.62;75.00
74790;BME280;63318;52.406;13.416;2023-08-01T09:16:07;99258.23;;;21.62;74.57
74790;BME280;63318;52.406;13.416;2023-08-01T09:18:48;99250.25;;;21.69;75.07
74790;BME280;63318;52.406;13.416;2023-08-01T09:21:19;99249.03;;;21.81;74.46
74790;BME280;63318;52.406;13.416;2023-08-01T09:23:47;99245.60;;;21.89;73.91
74790;BME280;63318;52.406;13.416;2023-08-01T09:26:16;99252.23;;;21.96;73.94
74790;BME280;63318;52.406;13.416;2023-08-01T09:28:44;99249.59;;;22.06;73.44
74790;BME280;63318;52.406;13.416;2023-08-01T09:31:29;99251.75;;;22.11;72.83
74790;BME280;63318;52.406;13.416;2023-08-01T09:33:58;99252.95;;;22.17;72.77
74790;BME280;63318;52.406;13.416;2023-08-01T09:36:26;99249.87;;;22.17;72.29
74790;BME280;63318;52.406;13.416;2023-08-01T09:38:59;99254.39;;;22.08;71.35
74790;BME280;63318;52.406;13.416;2023-08-01T09:41:28;99258.20;;;21.96;70.98
74790;BME280;63318;52.406;13.416;2023-08-01T09:43:56;99268.81;;;21.85;71.35
74790;BME280;63318;52.406;13.416;2023-08-01T09:46:25;99273.36;;;21.77;71.61
74790;BME280;63318;52.406;13.416;2023-08-01T09:48:53;99278.54;;;21.65;71.31
74790;BME280;63318;52.406;13.416;2023-08-01T09:51:21;99270.65;;;21.55;71.60
74790;BME280;63318;52.406;13.416;2023-08-01T09:53:51;99260.73;;;21.50;71.61
74790;BME280;63318;52.406;13.416;2023-08-01T09:56:21;99259.98;;;21.48;71.58
74790;BME280;63318;52.406;13.416;2023-08-01T09:58:52;99265.40;;;21.49;71.67
74790;BME280;63318;52.406;13.416;2023-08-01T10:01:22;99264.66;;;21.49;71.62
74790;BME280;63318;52.406;13.416;2023-08-01T10:03:51;99270.46;;;21.48;71.48
74790;BME280;63318;52.406;13.416;2023-08-01T10:06:21;99266.68;;;21.49;71.31
74790;BME280;63318;52.406;13.416;2023-08-01T10:08:51;99261.33;;;21.53;71.28
74790;BME280;63318;52.406;13.416;2023-08-01T10:11:23;99261.02;;;21.54;71.11
74790;BME280;63318;52.406;13.416;2023-08-01T10:13:51;99262.20;;;21.51;71.03
74790;BME280;63318;52.406;13.416;2023-08-01T10:16:19;99257.46;;;21.41;70.36
74790;BME280;63318;52.406;13.416;2023-08-01T10:18:48;99258.70;;;21.32;70.47
74790;BME280;63318;52.406;13.416;2023-08-01T10:21:18;99262.10;;;21.27;70.66
74790;BME280;63318;52.406;13.416;2023-08-01T10:23:47;99260.59;;;21.23;70.69
74790;BME280;63318;52.406;13.416;2023-08-01T10:26:16;99260.98;;;21.22;70.84
74790;BME280;63318;52.406;13.416;2023-08-01T10:28:51;99260.42;;;21.22;70.72
74790;BME280;63318;52.406;13.416;2023-08-01T10:31:21;99258.77;;;21.21;70.71
74790;BME280;63318;52.406;13.416;2023-08-01T10:33:50;99256.98;;;21.20;70.65
74790;BME280;63318;52.406;13.416;2023-08-01T10:36:19;99253.44;;;21.19;70.58
74790;BME280;63318;52.406;13.416;2023-08-01T10:38:52;99250.41;;;21.22;70.68
74790;BME280;63318;52.406;13.416;2023-08-01T10:41:25;99252.39;;;21.24;70.71
74790;BME280;63318;52.406;13.416;2023-08-01T10:44:05;99259.91;;;21.25;70.75
74790;BME280;63318;52.406;13.416;2023-08-01T10:46:48;99260.49;;;21.27;70.67
74790;BME280;63318;52.406;13.416;2023-08-01T10:49:16;99254.09;;;21.26;70.60
74790;BME280;63318;52.406;13.416;2023-08-01T10:51:45;99254.82;;;21.25;70.76
74790;BME280;63318;52.406;13.416;2023-08-01T10:54:22;99255.42;;;21.23;70.63
74790;BME280;63318;52.406;13.416;2023-08-01T10:56:51;99271.68;;;21.20;70.90
74790;BME280;63318;52.406;13.416;2023-08-01T10:59:20;99293.20;;;21.13;71.16
74790;BME280;63318;52.406;13.416;2023-08-01T11:01:50;99298.18;;;20.98;71.66
74790;BME280;63318;52.406;13.416;2023-08-01T11:04:19;99302.37;;;20.78;72.12
74790;BME280;63318;52.406;13.416;2023-08-01T11:06:49;99296.44;;;20.62;72.45
74790;BME280;63318;52.406;13.416;2023-08-01T11:09:22;99298.48;;;20.47;72.95
74790;BME280;63318;52.406;13.416;2023-08-01T11:11:52;99293.69;;;20.35;73.30
74790;BME280;63318;52.406;13.416;2023-08-01T11:14:23;99285.05;;;20.25;73.74
74790;BME280;63318;52.406;13.416;2023-08-01T11:16:53;99291.80;;;20.18;74.10
74790;BME280;63318;52.406;13.416;2023-08-01T11:19:24;99300.10;;;20.15;74.58
74790;BME280;63318;52.406;13.416;2023-08-01T11:21:53;99304.05;;;20.11;74.79
74790;BME280;63318;52.406;13.416;2023-08-01T11:24:24;99303.39;;;20.05;74.97
74790;BME280;63318;52.406;13.416;2023-08-01T11:26:54;99311.78;;;20.02;74.91
74790;BME280;63318;52.406;13.416;2023-08-01T11:29:23;99320.66;;;19.96;74.84
74790;BME280;63318;52.406;13.416;2023-08-01T11:31:55;99317.79;;;19.89;75.00
74790;BME280;63318;52.406;13.416;2023-08-01T11:34:24;99319.92;;;19.83;75.18
74790;BME280;63318;52.406;13.416;2023-08-01T11:36:53;99324.27;;;19.76;75.37
74790;BME280;63318;52.406;13.416;2023-08-01T11:39:22;99327.84;;;19.70;75.43
74790;BME280;63318;52.406;13.416;2023-08-01T11:41:50;99327.15;;;19.64;75.43
74790;BME280;63318;52.406;13.416;2023-08-01T11:44:22;99320.91;;;19.58;75.26
74790;BME280;63318;52.406;13.416;2023-08-01T11:46:51;99318.30;;;19.53;75.67
74790;BME280;63318;52.406;13.416;2023-08-01T11:49:19;99325.45;;;19.53;75.58
74790;BME280;63318;52.406;13.416;2023-08-01T11:51:48;99331.84;;;19.51;75.58
74790;BME280;63318;52.406;13.416;2023-08-01T11:54:16;99336.52;;;19.48;75.77
74790;BME280;63318;52.406;13.416;2023-08-01T11:56:45;99337.86;;;19.46;75.74
74790;BME280;63318;52.406;13.416;2023-08-01T11:59:14;99337.73;;;19.47;75.98
74790;BME280;63318;52.406;13.416;2023-08-01T12:01:44;99340.04;;;19.51;76.33
74790;BME280;63318;52.406;13.416;2023-08-01T12:04:23;99343.77;;;19.58;76.27
74790;BME280;63318;52.406;13.416;2023-08-01T12:06:51;99349.35;;;19.67;76.42
74790;BME280;63318;52.406;13.416;2023-08-01T12:09:20;99346.84;;;19.73;76.32
74790;BME280;63318;52.406;13.416;2023-08-01T12:11:59;99344.29;;;19.85;76.93
74790;BME280;63318;52.406;13.416;2023-08-01T12:14:27;99338.02;;;20.01;76.47
74790;BME280;63318;52.406;13.416;2023-08-01T12:16:55;99335.83;;;20.16;76.31
74790;BME280;63318;52.406;13.416;2023-08-01T12:19:23;99339.91;;;20.29;76.55
74790;BME280;63318;52.406;13.416;2023-08-01T12:21:52;99337.66;;;20.41;77.06
74790;BME280;63318;52.406;13.416;2023-08-01T12:24:20;99338.54;;;20.50;76.35
74790;BME280;63318;52.406;13.416;2023-08-01T12:26:48;99342.35;;;20.55;76.07
74790;BME280;63318;52.406;13.416;2023-08-01T12:29:16;99340.20;;;20.61;75.84
74790;BME280;63318;52.406;13.416;2023-08-01T12:31:44;99336.86;;;20.63;75.82
74790;BME280;63318;52.406;13.416;2023-08-01T12:34:13;99335.33;;;20.64;75.66
74790;BME280;63318;52.406;13.416;2023-08-01T12:36:41;99338.05;;;20.66;75.57
74790;BME280;63318;52.406;13.416;2023-08-01T12:39:09;99339.52;;;20.72;75.52
74790;BME280;63318;52.406;13.416;2023-08-01T12:41:37;99339.15;;;20.83;75.15
74790;BME280;63318;52.406;13.416;2023-08-01T12:44:06;99341.18;;;20.98;75.44
74790;BME280;63318;52.406;13.416;2023-08-01T12:46:34;99338.24;;;21.13;75.07
74790;BME280;63318;52.406;13.416;2023-08-01T12:49:02;99339.89;;;21.20;74.46
74790;BME280;63318;52.406;13.416;2023-08-01T12:51:30;99336.35;;;21.21;73.83
74790;BME280;63318;52.406;13.416;2023-08-01T12:53:58;99342.65;;;21.22;73.87
74790;BME280;63318;52.406;13.416;2023-08-01T12:56:27;99346.21;;;21.22;73.71
74790;BME280;63318;52.406;13.416;2023-08-01T12:58:55;99346.94;;;21.21;73.35